sensor_id;sensor_type;location;lat;lon;timestamp;temperature;humidity
66740;DHT22;53653;52.188;8.602;2023-02-22T00:00:50;7.90;96.62
66740;DHT22;53653;52.188;8.602;2023-02-22T00:03:21;7.93;96.65
66740;DHT22;53653;52.188;8.602;2023-02-22T00:05:52;7.93;96.69
66740;DHT22;53653;52.188;8.602;2023-02-22T00:08:21;7.96;96.60
66740;DHT22;53653;52.188;8.602;2023-02-22T00:10:47;7.96;96.51
66740;DHT22;53653;52.188;8.602;2023-02-22T00:13:18;7.99;96.38
66740;DHT22;53653;52.188;8.602;2023-02-22T00:15:44;7.99;96.35
66740;DHT22;53653;52.188;8.602;2023-02-22T00:18:13;7.97;96.33
66740;DHT22;53653;52.188;8.602;2023-02-22T00:20:39;7.99;96.13
66740;DHT22;53653;52.188;8.602;2023-02-22T00:23:16;8.00;96.24
66740;DHT22;53653;52.188;8.602;2023-02-22T00:25:45;8.00;95.94
66740;DHT22;53653;52.188;8.602;2023-02-22T00:28:11;7.99;95.96
66740;DHT22;53653;52.188;8.602;2023-02-22T00:30:39;7.99;95.84
66740;DHT22;53653;52.188;8.602;2023-02-22T00:33:09;8.00;95.96
66740;DHT22;53653;52.188;8.602;2023-02-22T00:35:34;8.03;95.78
66740;DHT22;53653;52.188;8.602;2023-02-22T00:38:02;8.03;95.61
66740;DHT22;53653;52.188;8.602;2023-02-22T00:40:30;8.03;95.62
66740;DHT22;53653;52.188;8.602;2023-02-22T00:42:56;8.05;95.55
66740;DHT22;53653;52.188;8.602;2023-02-22T00:45:24;8.03;95.56
66740;DHT22;53653;52.188;8.602;2023-02-22T00:47:51;8.05;95.76
66740;DHT22;53653;52.188;8.602;2023-02-22T00:50:18;8.05;95.53
66740;DHT22;53653;52.188;8.602;2023-02-22T00:52:44;8.03;95.58
66740;DHT22;53653;52.188;8.602;2023-02-22T00:55:15;8.05;95.60
66740;DHT22;53653;52.188;8.602;2023-02-22T00:57:41;8.07;95.49
66740;DHT22;53653;52.188;8.602;2023-02-22T01:00:09;8.06;95.48
66740;DHT22;53653;52.188;8.602;2023-02-22T01:02:39;8.06;95.63
66740;DHT22;53653;52.188;8.602;2023-02-22T01:05:10;8.06;95.55
66740;DHT22;53653;52.188;8.602;2023-02-22T01:07:39;8.09;95.58
66740;DHT22;53653;52.188;8.602;2023-02-22T01:10:07;8.12;95.37
66740;DHT22;53653;52.188;8.602;2023-02-22T01:12:34;8.07;95.50
66740;DHT22;53653;52.188;8.602;2023-02-22T01:15:01;8.09;95.47
66740;DHT22;53653;52.188;8.602;2023-02-22T01:17:28;8.07;95.44
66740;DHT22;53653;52.188;8.602;2023-02-22T01:19:54;8.07;95.64
66740;DHT22;53653;52.188;8.602;2023-02-22T01:22:21;8.05;95.77
66740;DHT22;53653;52.188;8.602;2023-02-22T01:24:50;8.03;95.70
66740;DHT22;53653;52.188;8.602;2023-02-22T01:27:16;8.05;95.69
66740;DHT22;53653;52.188;8.602;2023-02-22T01:29:43;8.03;95.73
66740;DHT22;53653;52.188;8.602;2023-02-22T01:32:10;8.05;95.64
66740;DHT22;53653;52.188;8.602;2023-02-22T01:34:37;8.05;95.65
66740;DHT22;53653;52.188;8.602;2023-02-22T01:37:03;8.03;95.68
66740;DHT22;53653;52.188;8.602;2023-02-22T01:39:29;8.05;95.69
66740;DHT22;53653;52.188;8.602;2023-02-22T01:41:55;8.05;95.68
66740;DHT22;53653;52.188;8.602;2023-02-22T01:44:36;8.05;95.64
66740;DHT22;53653;52.188;8.602;2023-02-22T01:47:04;8.05;95.62
66740;DHT22;53653;52.188;8.602;2023-02-22T01:49:34;8.03;95.57
66740;DHT22;53653;52.188;8.602;2023-02-22T01:52:02;8.05;95.64
66740;DHT22;53653;52.188;8.602;2023-02-22T01:54:34;8.03;95.75
66740;DHT22;53653;52.188;8.602;2023-02-22T01:57:05;7.99;95.84
66740;DHT22;53653;52.188;8.602;2023-02-22T01:59:39;7.97;95.83
66740;DHT22;53653;52.188;8.602;2023-02-22T02:02:07;7.93;95.92
66740;DHT22;53653;52.188;8.602;2023-02-22T02:04:33;7.87;96.05
66740;DHT22;53653;52.188;8.602;2023-02-22T02:07:02;7.85;96.15
66740;DHT22;53653;52.188;8.602;2023-02-22T02:09:49;7.82;96.27
66740;DHT22;53653;52.188;8.602;2023-02-22T02:12:19;7.81;96.28
66740;DHT22;53653;52.188;8.602;2023-02-22T02:14:45;7.78;96.35
66740;DHT22;53653;52.188;8.602;2023-02-22T02:17:15;7.76;96.31
66740;DHT22;53653;52.188;8.602;2023-02-22T02:20:07;7.69;96.46
66740;DHT22;53653;52.188;8.602;2023-02-22T02:34:33;7.65;96.92
66740;DHT22;53653;52.188;8.602;2023-02-22T02:36:49;7.65;97.03
66740;DHT22;53653;52.188;8.602;2023-02-22T02:39:29;7.62;97.01
66740;DHT22;53653;52.188;8.602;2023-02-22T02:41:59;7.61;97.02
66740;DHT22;53653;52.188;8.602;2023-02-22T02:44:35;7.54;96.98
66740;DHT22;53653;52.188;8.602;2023-02-22T02:47:30;7.50;97.06
66740;DHT22;53653;52.188;8.602;2023-02-22T02:50:07;7.48;97.15
66740;DHT22;53653;52.188;8.602;2023-02-22T02:52:36;7.37;97.11
66740;DHT22;53653;52.188;8.602;2023-02-22T02:55:05;7.35;97.25
66740;DHT22;53653;52.188;8.602;2023-02-22T02:57:32;7.40;97.23
66740;DHT22;53653;52.188;8.602;2023-02-22T02:59:58;7.44;97.06
66740;DHT22;53653;52.188;8.602;2023-02-22T03:02:40;7.41;96.82
66740;DHT22;53653;52.188;8.602;2023-02-22T03:10:54;7.40;96.27
66740;DHT22;53653;52.188;8.602;2023-02-22T03:13:34;7.34;96.27
66740;DHT22;53653;52.188;8.602;2023-02-22T03:16:26;7.30;96.41
66740;DHT22;53653;52.188;8.602;2023-02-22T03:21:56;7.21;96.52
66740;DHT22;53653;52.188;8.602;2023-02-22T03:24:31;7.11;96.63
66740;DHT22;53653;52.188;8.602;2023-02-22T03:27:05;7.08;96.69
66740;DHT22;53653;52.188;8.602;2023-02-22T03:29:38;7.01;96.87
66740;DHT22;53653;52.188;8.602;2023-02-22T03:32:10;6.95;96.85
66740;DHT22;53653;52.188;8.602;2023-02-22T03:34:45;6.90;97.11
66740;DHT22;53653;52.188;8.602;2023-02-22T03:37:38;6.83;97.14
66740;DHT22;53653;52.188;8.602;2023-02-22T03:40:08;6.78;97.22
66740;DHT22;53653;52.188;8.602;2023-02-22T03:42:57;6.76;97.31
66740;DHT22;53653;52.188;8.602;2023-02-22T03:45:26;6.69;97.33
66740;DHT22;53653;52.188;8.602;2023-02-22T03:48:03;6.68;97.49
66740;DHT22;53653;52.188;8.602;2023-02-22T03:50:33;6.65;97.47
66740;DHT22;53653;52.188;8.602;2023-02-22T03:53:00;6.56;97.35
66740;DHT22;53653;52.188;8.602;2023-02-22T03:55:29;6.52;97.50
66740;DHT22;53653;52.188;8.602;2023-02-22T03:57:58;6.49;97.67
66740;DHT22;53653;52.188;8.602;2023-02-22T04:00:28;6.42;97.95
66740;DHT22;53653;52.188;8.602;2023-02-22T04:02:55;6.42;98.25
66740;DHT22;53653;52.188;8.602;2023-02-22T04:05:21;6.38;98.48
66740;DHT22;53653;52.188;8.602;2023-02-22T04:07:53;6.35;98.49
66740;DHT22;53653;52.188;8.602;2023-02-22T04:10:19;6.35;98.46
66740;DHT22;53653;52.188;8.602;2023-02-22T04:12:45;6.35;98.22
66740;DHT22;53653;52.188;8.602;2023-02-22T04:15:14;6.31;98.11
66740;DHT22;53653;52.188;8.602;2023-02-22T04:17:41;6.28;98.17
66740;DHT22;53653;52.188;8.602;2023-02-22T04:20:12;6.25;98.10
66740;DHT22;53653;52.188;8.602;2023-02-22T04:22:51;6.24;98.21
66740;DHT22;53653;52.188;8.602;2023-02-22T04:25:20;6.18;98.09
66740;DHT22;53653;52.188;8.602;2023-02-22T04:27:46;6.10;97.92
66740;DHT22;53653;52.188;8.602;2023-02-22T04:30:17;6.06;97.86
66740;DHT22;53653;52.188;8.602;2023-02-22T04:32:43;6.01;97.77
66740;DHT22;53653;52.188;8.602;2023-02-22T04:35:11;5.99;97.57
66740;DHT22;53653;52.188;8.602;2023-02-22T04:37:36;5.89;97.48
66740;DHT22;53653;52.188;8.602;2023-02-22T04:40:04;5.81;97.56
66740;DHT22;53653;52.188;8.602;2023-02-22T04:42:35;5.72;97.55
66740;DHT22;53653;52.188;8.602;2023-02-22T04:45:03;5.67;97.69
66740;DHT22;53653;52.188;8.602;2023-02-22T04:47:29;5.66;97.68
66740;DHT22;53653;52.188;8.602;2023-02-22T04:49:54;5.66;97.69
66740;DHT22;53653;52.188;8.602;2023-02-22T04:52:20;5.65;97.70
66740;DHT22;53653;52.188;8.602;2023-02-22T04:54:46;5.63;97.71
66740;DHT22;53653;52.188;8.602;2023-02-22T04:57:12;5.60;97.71
66740;DHT22;53653;52.188;8.602;2023-02-22T04:59:37;5.56;97.68
66740;DHT22;53653;52.188;8.602;2023-02-22T05:02:03;5.55;97.60
66740;DHT22;53653;52.188;8.602;2023-02-22T05:04:28;5.48;97.53
66740;DHT22;53653;52.188;8.602;2023-02-22T05:06:54;5.41;97.43
66740;DHT22;53653;52.188;8.602;2023-02-22T05:09:20;5.36;97.51
66740;DHT22;53653;52.188;8.602;2023-02-22T05:11:45;5.34;97.63
66740;DHT22;53653;52.188;8.602;2023-02-22T05:14:11;5.30;97.75
66740;DHT22;53653;52.188;8.602;2023-02-22T05:16:37;5.30;97.87
66740;DHT22;53653;52.188;8.602;2023-02-22T05:19:03;5.27;97.69
66740;DHT22;53653;52.188;8.602;2023-02-22T05:21:29;5.20;97.92
66740;DHT22;53653;52.188;8.602;2023-02-22T05:23:54;5.17;98.10
66740;DHT22;53653;52.188;8.602;2023-02-22T05:26:20;5.24;98.32
66740;DHT22;53653;52.188;8.602;2023-02-22T05:28:46;5.24;98.20
66740;DHT22;53653;52.188;8.602;2023-02-22T05:31:11;5.27;98.47
66740;DHT22;53653;52.188;8.602;2023-02-22T05:33:37;5.30;98.24
66740;DHT22;53653;52.188;8.602;2023-02-22T05:36:04;5.28;98.10
66740;DHT22;53653;52.188;8.602;2023-02-22T05:38:30;5.25;97.98
66740;DHT22;53653;52.188;8.602;2023-02-22T05:40:55;5.20;97.74
66740;DHT22;53653;52.188;8.602;2023-02-22T05:43:21;5.10;97.78
66740;DHT22;53653;52.188;8.602;2023-02-22T05:45:47;5.11;98.02
66740;DHT22;53653;52.188;8.602;2023-02-22T05:48:12;5.14;98.24
66740;DHT22;53653;52.188;8.602;2023-02-22T05:50:38;5.17;98.30
66740;DHT22;53653;52.188;8.602;2023-02-22T05:53:05;5.12;98.35
66740;DHT22;53653;52.188;8.602;2023-02-22T05:55:31;5.11;98.30
66740;DHT22;53653;52.188;8.602;2023-02-22T05:57:57;5.04;98.21
66740;DHT22;53653;52.188;8.602;2023-02-22T06:00:26;4.98;98.30
66740;DHT22;53653;52.188;8.602;2023-02-22T06:03:04;4.95;98.42
66740;DHT22;53653;52.188;8.602;2023-02-22T06:05:31;4.97;98.73
66740;DHT22;53653;52.188;8.602;2023-02-22T06:07:57;5.00;98.64
66740;DHT22;53653;52.188;8.602;2023-02-22T06:10:24;5.01;98.41
66740;DHT22;53653;52.188;8.602;2023-02-22T06:12:51;5.00;98.36
66740;DHT22;53653;52.188;8.602;2023-02-22T06:15:18;4.95;98.38
66740;DHT22;53653;52.188;8.602;2023-02-22T06:17:43;4.93;98.31
66740;DHT22;53653;52.188;8.602;2023-02-22T06:20:11;4.93;98.29
66740;DHT22;53653;52.188;8.602;2023-02-22T06:22:37;4.94;98.28
66740;DHT22;53653;52.188;8.602;2023-02-22T06:25:06;4.95;98.25
66740;DHT22;53653;52.188;8.602;2023-02-22T06:27:33;4.94;98.24
66740;DHT22;53653;52.188;8.602;2023-02-22T06:29:59;4.91;98.63
66740;DHT22;53653;52.188;8.602;2023-02-22T06:32:25;4.90;98.65
66740;DHT22;53653;52.188;8.602;2023-02-22T06:34:51;4.84;98.68
66740;DHT22;53653;52.188;8.602;2023-02-22T06:37:17;4.87;98.71
66740;DHT22;53653;52.188;8.602;2023-02-22T06:39:43;4.85;98.76
66740;DHT22;53653;52.188;8.602;2023-02-22T06:42:09;4.85;98.71
66740;DHT22;53653;52.188;8.602;2023-02-22T06:44:34;4.91;98.65
66740;DHT22;53653;52.188;8.602;2023-02-22T06:47:00;4.93;98.54
66740;DHT22;53653;52.188;8.602;2023-02-22T06:49:26;4.97;98.50
66740;DHT22;53653;52.188;8.602;2023-02-22T06:51:53;5.03;98.46
66740;DHT22;53653;52.188;8.602;2023-02-22T06:54:19;5.05;98.35
66740;DHT22;53653;52.188;8.602;2023-02-22T06:56:44;5.14;98.42
66740;DHT22;53653;52.188;8.602;2023-02-22T06:59:10;5.18;98.35
66740;DHT22;53653;52.188;8.602;2023-02-22T07:01:35;5.21;98.24
66740;DHT22;53653;52.188;8.602;2023-02-22T07:04:01;5.20;98.19
66740;DHT22;53653;52.188;8.602;2023-02-22T07:06:27;5.22;98.18
66740;DHT22;53653;52.188;8.602;2023-02-22T07:08:52;5.28;98.15
66740;DHT22;53653;52.188;8.602;2023-02-22T07:11:19;5.31;98.04
66740;DHT22;53653;52.188;8.602;2023-02-22T07:13:44;5.42;97.93
66740;DHT22;53653;52.188;8.602;2023-02-22T07:16:10;5.41;97.62
66740;DHT22;53653;52.188;8.602;2023-02-22T07:18:35;5.46;97.59
66740;DHT22;53653;52.188;8.602;2023-02-22T07:21:01;5.58;97.40
66740;DHT22;53653;52.188;8.602;2023-02-22T07:23:26;5.60;97.33
66740;DHT22;53653;52.188;8.602;2023-02-22T07:25:52;5.70;97.23
66740;DHT22;53653;52.188;8.602;2023-02-22T07:28:17;5.69;97.02
66740;DHT22;53653;52.188;8.602;2023-02-22T07:30:43;5.67;96.99
66740;DHT22;53653;52.188;8.602;2023-02-22T07:33:10;5.87;96.89
66740;DHT22;53653;52.188;8.602;2023-02-22T07:35:38;6.00;96.52
66740;DHT22;53653;52.188;8.602;2023-02-22T07:38:07;6.22;96.58
66740;DHT22;53653;52.188;8.602;2023-02-22T07:40:34;6.37;96.23
66740;DHT22;53653;52.188;8.602;2023-02-22T07:43:02;6.44;95.85
66740;DHT22;53653;52.188;8.602;2023-02-22T07:45:29;6.59;95.45
66740;DHT22;53653;52.188;8.602;2023-02-22T07:47:55;6.80;95.46
66740;DHT22;53653;52.188;8.602;2023-02-22T07:50:22;6.66;94.60
66740;DHT22;53653;52.188;8.602;2023-02-22T07:52:51;6.62;94.87
66740;DHT22;53653;52.188;8.602;2023-02-22T07:55:19;6.65;95.08
66740;DHT22;53653;52.188;8.602;2023-02-22T07:57:47;6.64;95.31
66740;DHT22;53653;52.188;8.602;2023-02-22T08:00:15;6.68;95.35
66740;DHT22;53653;52.188;8.602;2023-02-22T08:02:42;6.75;95.38
66740;DHT22;53653;52.188;8.602;2023-02-22T08:05:09;6.79;94.86
66740;DHT22;53653;52.188;8.602;2023-02-22T08:07:38;6.86;94.90
66740;DHT22;53653;52.188;8.602;2023-02-22T08:10:05;6.96;94.39
66740;DHT22;53653;52.188;8.602;2023-02-22T08:12:35;7.07;94.40
66740;DHT22;53653;52.188;8.602;2023-02-22T08:15:06;7.30;93.80
66740;DHT22;53653;52.188;8.602;2023-02-22T08:17:32;7.20;93.55
66740;DHT22;53653;52.188;8.602;2023-02-22T08:19:57;7.37;93.51
66740;DHT22;53653;52.188;8.602;2023-02-22T08:22:23;7.28;93.78
66740;DHT22;53653;52.188;8.602;2023-02-22T08:24:48;7.21;94.10
66740;DHT22;53653;52.188;8.602;2023-02-22T08:27:29;7.24;94.38
66740;DHT22;53653;52.188;8.602;2023-02-22T08:29:55;7.37;94.07
66740;DHT22;53653;52.188;8.602;2023-02-22T08:32:22;7.45;93.76
66740;DHT22;53653;52.188;8.602;2023-02-22T08:34:48;7.59;93.62
66740;DHT22;53653;52.188;8.602;2023-02-22T08:37:17;7.62;93.53
66740;DHT22;53653;52.188;8.602;2023-02-22T08:39:43;7.75;93.12
66740;DHT22;53653;52.188;8.602;2023-02-22T08:42:08;7.92;92.88
66740;DHT22;53653;52.188;8.602;2023-02-22T08:44:38;7.93;92.74
66740;DHT22;53653;52.188;8.602;2023-02-22T08:47:04;7.95;92.64
66740;DHT22;53653;52.188;8.602;2023-02-22T08:49:30;8.05;92.22
66740;DHT22;53653;52.188;8.602;2023-02-22T08:51:55;7.99;92.62
66740;DHT22;53653;52.188;8.602;2023-02-22T08:54:21;8.19;92.98
66740;DHT22;53653;52.188;8.602;2023-02-22T08:56:47;8.32;92.24
66740;DHT22;53653;52.188;8.602;2023-02-22T08:59:13;8.44;91.84
66740;DHT22;53653;52.188;8.602;2023-02-22T09:01:39;8.43;92.03
66740;DHT22;53653;52.188;8.602;2023-02-22T09:04:04;8.63;91.70
66740;DHT22;53653;52.188;8.602;2023-02-22T09:06:30;8.76;91.25
66740;DHT22;53653;52.188;8.602;2023-02-22T09:08:56;8.68;91.51
66740;DHT22;53653;52.188;8.602;2023-02-22T09:11:21;8.81;91.14
66740;DHT22;53653;52.188;8.602;2023-02-22T09:13:47;8.95;90.99
66740;DHT22;53653;52.188;8.602;2023-02-22T09:16:12;9.12;91.23
66740;DHT22;53653;52.188;8.602;2023-02-22T09:18:38;9.26;90.90
66740;DHT22;53653;52.188;8.602;2023-02-22T09:21:04;9.37;90.82
66740;DHT22;53653;52.188;8.602;2023-02-22T09:23:30;9.67;90.22
66740;DHT22;53653;52.188;8.602;2023-02-22T09:25:55;9.98;89.59
66740;DHT22;53653;52.188;8.602;2023-02-22T09:28:21;10.20;89.37
66740;DHT22;53653;52.188;8.602;2023-02-22T09:30:46;10.36;88.58
66740;DHT22;53653;52.188;8.602;2023-02-22T09:33:15;10.42;87.66
66740;DHT22;53653;52.188;8.602;2023-02-22T09:35:44;10.28;87.89
66740;DHT22;53653;52.188;8.602;2023-02-22T09:38:17;10.48;87.28
66740;DHT22;53653;52.188;8.602;2023-02-22T09:40:48;10.56;85.87
66740;DHT22;53653;52.188;8.602;2023-02-22T09:43:32;10.61;86.72
66740;DHT22;53653;52.188;8.602;2023-02-22T09:46:38;10.48;86.24
66740;DHT22;53653;52.188;8.602;2023-02-22T09:54:47;10.59;85.60
66740;DHT22;53653;52.188;8.602;2023-02-22T09:57:26;10.55;86.36
66740;DHT22;53653;52.188;8.602;2023-02-22T10:00:28;10.57;86.13
66740;DHT22;53653;52.188;8.602;2023-02-22T10:03:07;10.60;85.82
66740;DHT22;53653;52.188;8.602;2023-02-22T10:05:50;10.76;85.41
66740;DHT22;53653;52.188;8.602;2023-02-22T10:08:18;10.81;85.50
66740;DHT22;53653;52.188;8.602;2023-02-22T10:10:46;10.93;85.19
66740;DHT22;53653;52.188;8.602;2023-02-22T10:16:53;11.40;84.56
66740;DHT22;53653;52.188;8.602;2023-02-22T10:21:55;11.66;83.53
66740;DHT22;53653;52.188;8.602;2023-02-22T10:24:31;11.90;82.03
66740;DHT22;53653;52.188;8.602;2023-02-22T10:27:07;11.94;81.16
66740;DHT22;53653;52.188;8.602;2023-02-22T10:29:39;12.03;82.07
66740;DHT22;53653;52.188;8.602;2023-02-22T10:32:12;11.98;81.54
66740;DHT22;53653;52.188;8.602;2023-02-22T10:34:43;12.14;81.44
66740;DHT22;53653;52.188;8.602;2023-02-22T10:39:38;13.06;78.57
66740;DHT22;53653;52.188;8.602;2023-02-22T10:42:06;13.04;77.69
66740;DHT22;53653;52.188;8.602;2023-02-22T10:44:36;12.95;78.87
66740;DHT22;53653;52.188;8.602;2023-02-22T10:47:06;13.11;78.21
66740;DHT22;53653;52.188;8.602;2023-02-22T10:49:42;13.31;76.85
66740;DHT22;53653;52.188;8.602;2023-02-22T10:52:21;12.97;77.25
66740;DHT22;53653;52.188;8.602;2023-02-22T10:54:49;12.75;77.89
66740;DHT22;53653;52.188;8.602;2023-02-22T10:57:20;12.44;79.19
66740;DHT22;53653;52.188;8.602;2023-02-22T10:59:47;12.42;79.58
66740;DHT22;53653;52.188;8.602;2023-02-22T11:02:17;12.41;79.59
66740;DHT22;53653;52.188;8.602;2023-02-22T11:04:52;12.66;78.70
66740;DHT22;53653;52.188;8.602;2023-02-22T11:07:22;12.56;78.70
66740;DHT22;53653;52.188;8.602;2023-02-22T11:09:59;12.58;78.76
66740;DHT22;53653;52.188;8.602;2023-02-22T11:12:36;12.79;79.05
66740;DHT22;53653;52.188;8.602;2023-02-22T11:15:26;12.80;78.10
66740;DHT22;53653;52.188;8.602;2023-02-22T11:17:54;13.03;76.60
66740;DHT22;53653;52.188;8.602;2023-02-22T11:20:24;13.09;77.01
66740;DHT22;53653;52.188;8.602;2023-02-22T11:22:55;13.28;75.78
66740;DHT22;53653;52.188;8.602;2023-02-22T11:25:31;13.07;76.88
66740;DHT22;53653;52.188;8.602;2023-02-22T11:28:15;13.13;76.91
66740;DHT22;53653;52.188;8.602;2023-02-22T11:30:50;12.83;77.15
66740;DHT22;53653;52.188;8.602;2023-02-22T11:36:00;13.41;76.31
66740;DHT22;53653;52.188;8.602;2023-02-22T11:38:38;13.50;75.74
66740;DHT22;53653;52.188;8.602;2023-02-22T11:41:18;13.79;75.84
66740;DHT22;53653;52.188;8.602;2023-02-22T11:43:47;14.05;75.12
66740;DHT22;53653;52.188;8.602;2023-02-22T11:46:16;13.94;75.38
66740;DHT22;53653;52.188;8.602;2023-02-22T11:49:12;13.85;75.11
66740;DHT22;53653;52.188;8.602;2023-02-22T11:54:34;13.57;75.85
66740;DHT22;53653;52.188;8.602;2023-02-22T11:59:57;13.77;75.14
66740;DHT22;53653;52.188;8.602;2023-02-22T12:08:47;14.16;74.48
66740;DHT22;53653;52.188;8.602;2023-02-22T12:11:25;14.04;74.17
66740;DHT22;53653;52.188;8.602;2023-02-22T12:17:28;13.89;74.45
66740;DHT22;53653;52.188;8.602;2023-02-22T12:20:00;14.23;73.29
66740;DHT22;53653;52.188;8.602;2023-02-22T12:22:32;14.46;73.78
66740;DHT22;53653;52.188;8.602;2023-02-22T12:27:46;14.05;74.43
66740;DHT22;53653;52.188;8.602;2023-02-22T12:32:50;14.78;71.66
66740;DHT22;53653;52.188;8.602;2023-02-22T12:35:23;14.34;72.77
66740;DHT22;53653;52.188;8.602;2023-02-22T12:38:05;14.48;72.30
66740;DHT22;53653;52.188;8.602;2023-02-22T12:43:28;15.11;70.62
66740;DHT22;53653;52.188;8.602;2023-02-22T12:51:28;15.15;70.14
66740;DHT22;53653;52.188;8.602;2023-02-22T13:01:57;14.78;70.94
66740;DHT22;53653;52.188;8.602;2023-02-22T13:04:23;14.98;71.38
66740;DHT22;53653;52.188;8.602;2023-02-22T13:07:02;14.98;69.63
66740;DHT22;53653;52.188;8.602;2023-02-22T13:20:38;14.89;69.44
66740;DHT22;53653;52.188;8.602;2023-02-22T13:26:03;14.94;69.27
66740;DHT22;53653;52.188;8.602;2023-02-22T13:28:38;14.91;69.54
66740;DHT22;53653;52.188;8.602;2023-02-22T13:37:06;14.85;69.05
66740;DHT22;53653;52.188;8.602;2023-02-22T13:42:37;14.53;70.10
66740;DHT22;53653;52.188;8.602;2023-02-22T13:48:07;14.22;70.90
66740;DHT22;53653;52.188;8.602;2023-02-22T13:51:00;14.20;70.56
66740;DHT22;53653;52.188;8.602;2023-02-22T13:53:42;14.41;70.26
66740;DHT22;53653;52.188;8.602;2023-02-22T13:56:08;14.41;70.31
66740;DHT22;53653;52.188;8.602;2023-02-22T13:58:54;14.43;69.69
66740;DHT22;53653;52.188;8.602;2023-02-22T14:01:46;14.43;69.81
66740;DHT22;53653;52.188;8.602;2023-02-22T14:06:45;14.33;70.44
66740;DHT22;53653;52.188;8.602;2023-02-22T14:09:43;14.43;70.33
66740;DHT22;53653;52.188;8.602;2023-02-22T14:17:41;14.33;70.47
66740;DHT22;53653;52.188;8.602;2023-02-22T14:22:47;14.29;71.02
66740;DHT22;53653;52.188;8.602;2023-02-22T14:25:41;14.04;71.18
66740;DHT22;53653;52.188;8.602;2023-02-22T14:28:34;13.78;71.65
66740;DHT22;53653;52.188;8.602;2023-02-22T14:31:07;13.82;72.04
66740;DHT22;53653;52.188;8.602;2023-02-22T14:34:09;13.74;72.41
66740;DHT22;53653;52.188;8.602;2023-02-22T14:36:51;13.68;72.92
66740;DHT22;53653;52.188;8.602;2023-02-22T14:42:03;13.69;72.90
66740;DHT22;53653;52.188;8.602;2023-02-22T14:47:05;13.83;72.10
66740;DHT22;53653;52.188;8.602;2023-02-22T14:49:35;13.88;72.75
66740;DHT22;53653;52.188;8.602;2023-02-22T14:52:16;13.83;72.70
66740;DHT22;53653;52.188;8.602;2023-02-22T14:55:05;13.83;72.27
66740;DHT22;53653;52.188;8.602;2023-02-22T14:58:14;13.78;72.25
66740;DHT22;53653;52.188;8.602;2023-02-22T15:00:50;13.78;73.41
66740;DHT22;53653;52.188;8.602;2023-02-22T15:05:46;13.71;72.23
66740;DHT22;53653;52.188;8.602;2023-02-22T15:08:16;13.67;72.65
66740;DHT22;53653;52.188;8.602;2023-02-22T15:10:49;13.71;72.81
66740;DHT22;53653;52.188;8.602;2023-02-22T15:13:22;13.69;73.26
66740;DHT22;53653;52.188;8.602;2023-02-22T15:15:56;13.65;72.88
66740;DHT22;53653;52.188;8.602;2023-02-22T15:18:35;13.65;72.99
66740;DHT22;53653;52.188;8.602;2023-02-22T15:21:11;13.68;73.01
66740;DHT22;53653;52.188;8.602;2023-02-22T15:23:45;13.61;73.18
66740;DHT22;53653;52.188;8.602;2023-02-22T15:26:35;13.59;73.38
66740;DHT22;53653;52.188;8.602;2023-02-22T15:29:18;13.55;73.49
66740;DHT22;53653;52.188;8.602;2023-02-22T15:31:44;13.51;74.06
66740;DHT22;53653;52.188;8.602;2023-02-22T15:36:42;13.44;74.37
66740;DHT22;53653;52.188;8.602;2023-02-22T15:39:18;13.43;74.27
66740;DHT22;53653;52.188;8.602;2023-02-22T15:41:44;13.38;74.47
66740;DHT22;53653;52.188;8.602;2023-02-22T15:44:10;13.34;74.46
66740;DHT22;53653;52.188;8.602;2023-02-22T15:46:39;13.26;74.91
66740;DHT22;53653;52.188;8.602;2023-02-22T15:51:38;13.21;75.12
66740;DHT22;53653;52.188;8.602;2023-02-22T15:54:06;13.20;75.43
66740;DHT22;53653;52.188;8.602;2023-02-22T15:56:34;13.13;75.52
66740;DHT22;53653;52.188;8.602;2023-02-22T15:59:15;13.10;75.84
66740;DHT22;53653;52.188;8.602;2023-02-22T16:01:45;13.06;76.24
66740;DHT22;53653;52.188;8.602;2023-02-22T16:04:23;13.00;76.27
66740;DHT22;53653;52.188;8.602;2023-02-22T16:06:53;12.95;76.50
66740;DHT22;53653;52.188;8.602;2023-02-22T16:09:27;12.92;76.75
66740;DHT22;53653;52.188;8.602;2023-02-22T16:14:46;12.76;77.70
66740;DHT22;53653;52.188;8.602;2023-02-22T16:17:35;12.68;77.96
66740;DHT22;53653;52.188;8.602;2023-02-22T16:22:42;12.55;78.54
66740;DHT22;53653;52.188;8.602;2023-02-22T16:27:47;12.38;79.18
66740;DHT22;53653;52.188;8.602;2023-02-22T16:32:49;12.31;79.38
66740;DHT22;53653;52.188;8.602;2023-02-22T16:35:15;12.32;79.60
66740;DHT22;53653;52.188;8.602;2023-02-22T16:37:46;12.27;79.67
66740;DHT22;53653;52.188;8.602;2023-02-22T16:40:21;12.21;79.84
66740;DHT22;53653;52.188;8.602;2023-02-22T16:42:47;12.13;80.19
66740;DHT22;53653;52.188;8.602;2023-02-22T16:45:17;12.04;80.52
66740;DHT22;53653;52.188;8.602;2023-02-22T16:47:43;11.93;81.01
66740;DHT22;53653;52.188;8.602;2023-02-22T16:50:09;11.86;81.24
66740;DHT22;53653;52.188;8.602;2023-02-22T16:52:38;11.84;81.38
66740;DHT22;53653;52.188;8.602;2023-02-22T16:55:10;11.76;81.72
66740;DHT22;53653;52.188;8.602;2023-02-22T16:57:37;11.63;82.13
66740;DHT22;53653;52.188;8.602;2023-02-22T17:00:04;11.55;82.58
66740;DHT22;53653;52.188;8.602;2023-02-22T17:02:38;11.52;82.58
66740;DHT22;53653;52.188;8.602;2023-02-22T17:05:03;11.49;82.54
66740;DHT22;53653;52.188;8.602;2023-02-22T17:07:29;11.47;82.56
66740;DHT22;53653;52.188;8.602;2023-02-22T17:09:57;11.45;82.66
66740;DHT22;53653;52.188;8.602;2023-02-22T17:12:24;11.40;82.94
66740;DHT22;53653;52.188;8.602;2023-02-22T17:14:50;11.26;83.17
66740;DHT22;53653;52.188;8.602;2023-02-22T17:17:16;11.24;83.55
66740;DHT22;53653;52.188;8.602;2023-02-22T17:19:42;11.18;83.60
66740;DHT22;53653;52.188;8.602;2023-02-22T17:22:21;11.14;83.90
66740;DHT22;53653;52.188;8.602;2023-02-22T17:24:47;11.05;84.17
66740;DHT22;53653;52.188;8.602;2023-02-22T17:27:12;10.96;84.42
66740;DHT22;53653;52.188;8.602;2023-02-22T17:29:38;10.90;84.58
66740;DHT22;53653;52.188;8.602;2023-02-22T17:32:05;10.85;84.87
66740;DHT22;53653;52.188;8.602;2023-02-22T17:34:31;10.85;84.88
66740;DHT22;53653;52.188;8.602;2023-02-22T17:36:57;10.81;85.00
66740;DHT22;53653;52.188;8.602;2023-02-22T17:39:22;10.80;84.94
66740;DHT22;53653;52.188;8.602;2023-02-22T17:41:48;10.80;84.89
66740;DHT22;53653;52.188;8.602;2023-02-22T17:44:19;10.74;85.30
66740;DHT22;53653;52.188;8.602;2023-02-22T17:46:44;10.67;85.43
66740;DHT22;53653;52.188;8.602;2023-02-22T17:49:10;10.59;85.55
66740;DHT22;53653;52.188;8.602;2023-02-22T17:51:39;10.39;86.18
66740;DHT22;53653;52.188;8.602;2023-02-22T17:54:05;10.29;86.40
66740;DHT22;53653;52.188;8.602;2023-02-22T17:56:30;10.23;86.77
66740;DHT22;53653;52.188;8.602;2023-02-22T17:58:56;10.20;86.88
66740;DHT22;53653;52.188;8.602;2023-02-22T18:01:24;10.15;87.06
66740;DHT22;53653;52.188;8.602;2023-02-22T18:03:53;10.06;87.19
66740;DHT22;53653;52.188;8.602;2023-02-22T18:06:20;10.01;87.48
66740;DHT22;53653;52.188;8.602;2023-02-22T18:08:47;10.05;87.40
66740;DHT22;53653;52.188;8.602;2023-02-22T18:11:14;10.11;87.03
66740;DHT22;53653;52.188;8.602;2023-02-22T18:13:40;10.18;86.96